Gray Army Air Field
KGRF : rendu visible

Aérodrome :











RETROUVEZ-NOUS SUR...

 
LOGIN :

S'inscrire | Disclaimer

   EN    FR    IT 

 









Légende :    VFR   VFR Marginal   IFR   IFR Intensif   IFR Très Intensif
Visi : 
Plafond : 
>= 8 km
>= 3000ft
5 à 8 km
1000 à 3000 ft
1500m à 5 km
500 à 1000 ft
800 à 1500m
200 à 500 ft
< 800m
< 200 ft
Symboles :   Orages  Brouillard  Fortes neiges  Fortes précipitations  Vent > 20 kt






- Altitude de l'aérodrome : 300 ft


KGRF - Gray Army Air Field

DERNIER METAR :
  • 271958Z 00000KT 10SM BKN140 08/08 A3013 RMK AO2A SLP208 T00790078 $

METARs EXPIRÉS :
  • 271858Z 00000KT 10SM SCT060 SCT160 08/08 A3015 RMK AO2A SLP215 T00760075 $
  • 271819Z 14003KT 10SM SCT060 07/07 A3015 RMK SLP215 $
  • 271758Z AUTO 00000KT 10SM CLR 06/06 A3016 RMK AO2 SLP219 T00590059 10059 20020 57005 $

TAF TAF KGRF
Valide du 27 à 13h jusqu'au 28 à 19h UTC


271305Z 2713/2819 20012KT 9999 BKN025 BKN035 620307 QNH3008INS
BECMG 2714/2715 21009KT 9999 SCT060 BKN180 QNH3015INS
BECMG 2720/2721 19009KT 9999 VCSH BKN030 OVC100 610309 QNH3000INS
BECMG 2723/2724 19010G15KT 8000 -RA OVC030 QNH2987INS
TEMPO 2803/2809 18015G25KT TX10/2721Z TN06/2714Z



MET'MAP, la Météo Aéronautique d'un coup d'oeil ! - Copyright ORBIFLY Décembre 2007 - Disclaimer

ORBIFLY MET'MAP TEAM :

Programmation & Développement : Alexandra Zaïnal
Sur une idée originale de : Baudouin d'Aumeries
Assistance à la programmation : Marc-Olivier Méhu
Soutien technique & logistique : Manuel Goepfert

Contact : metmap@orbifly.com




SOURCES & CREDITS :

   NOAA       Earth
Advisory